Sant Just Desvern, Spain
Current Conditions -  °F | °C
As of 4:00 PM on Wednesday 22 Oct 2014 (Local Time) from LEBL Reporting Station
Clear Clear  
Wind Chill: 70°   Ceiling: Unl
Heat Index: 70°   Visibility: 6mi
Dew Point: 57°   Wind: 13mph
Humidity: 64%   Direction: 190°S
Pressure: 30.15"   Gusts: NA
Location:  41.39°N, 2.08°E
Report Text: LEBL 221400Z 19011KT CAVOK 21/14 Q1021 NOSIG
Loading
Personal Weather Stations






























Interactive Weather Map
Tropical Storm Tracking
New forecast layout! Learn more

10-Day Weather Forecast

Advertisements
Track Severe Weather on mobile